Time;durP1;ratioP1;P1;durP2;ratioP2;P2;SDS_P1;SDS_P2;PMS_P1;PMS_P2;Temp;Humidity;BMP_temperature;BMP_pressure;BME280_temperature;BME280_humidity;BME280_pressure;Samples;Min_cycle;Max_cycle;Signal;HPM_P1;HPM_P2
2021/12/29 00:00:43;;;;;;;;;8.75;5.00;;;;;12.14;61.28;100027.75;5056068;28;45357;-62
2021/12/29 00:03:08;;;;;;;;;8.00;4.00;;;;;12.14;61.79;100027.75;5056264;28;45336;-62
2021/12/29 00:05:34;;;;;;;;;8.50;3.50;;;;;12.13;61.53;100034.00;5038102;28;45487;-60
2021/12/29 00:07:59;;;;;;;;;6.25;4.00;;;;;12.13;61.42;100034.00;5037276;28;64421;-63
2021/12/29 00:10:25;;;;;;;;;9.00;5.00;;;;;12.14;61.71;100027.75;5055202;28;67901;-61
2021/12/29 00:12:52;;;;;;;;;4.50;3.00;;;;;12.14;61.69;100035.66;5056091;28;45332;-62
2021/12/29 00:15:18;;;;;;;;;7.00;3.00;;;;;12.13;61.93;100042.72;5056016;28;45244;-62
2021/12/29 00:17:45;;;;;;;;;9.25;4.00;;;;;12.13;61.74;100044.53;5055726;28;45378;-62
2021/12/29 00:20:12;;;;;;;;;9.25;5.00;;;;;12.12;61.96;100042.88;5056097;28;45367;-63
2021/12/29 00:22:37;;;;;;;;;8.00;3.00;;;;;12.13;61.90;100052.44;5038105;28;45439;-62
2021/12/29 00:25:03;;;;;;;;;3.00;3.00;;;;;12.13;61.99;100070.88;5058904;28;47340;-61
2021/12/29 00:27:28;;;;;;;;;5.50;3.50;;;;;12.12;61.98;100066.59;5058805;28;49076;-61
2021/12/29 00:29:54;;;;;;;;;4.75;2.75;;;;;12.12;62.08;100067.41;5058456;28;67907;-62
2021/12/29 00:32:19;;;;;;;;;6.00;4.25;;;;;12.11;61.79;100068.38;5058429;28;63823;-62
2021/12/29 00:34:44;;;;;;;;;6.75;3.00;;;;;12.12;62.03;100072.66;5058343;28;65742;-61
2021/12/29 00:37:10;;;;;;;;;9.50;2.75;;;;;12.13;62.09;100086.66;5058315;28;65916;-60
2021/12/29 00:39:35;;;;;;;;;5.00;2.50;;;;;12.12;62.13;100088.47;5058095;28;72126;-62
2021/12/29 00:42:01;;;;;;;;;5.25;2.50;;;;;12.12;62.04;100103.47;5058170;28;64887;-60
2021/12/29 00:44:27;;;;;;;;;7.00;2.75;;;;;12.12;62.14;100104.25;5059088;28;45536;-62
2021/12/29 00:46:54;;;;;;;;;7.00;3.00;;;;;12.13;62.01;100115.63;5058771;28;45608;-60
2021/12/29 00:49:20;;;;;;;;;5.75;2.75;;;;;12.11;62.04;100110.50;5058884;28;45775;-62
2021/12/29 00:51:46;;;;;;;;;5.75;2.75;;;;;12.10;62.00;100110.69;5058294;28;45539;-62
2021/12/29 00:54:12;;;;;;;;;6.50;2.75;;;;;12.10;62.17;100114.13;5059039;28;45209;-60
2021/12/29 00:56:38;;;;;;;;;7.50;4.00;;;;;12.09;62.22;100107.22;5058037;28;66568;-61
2021/12/29 00:59:03;;;;;;;;;6.75;3.25;;;;;12.10;62.35;100111.50;5057999;28;46046;-61
2021/12/29 01:01:29;;;;;;;;;5.50;3.50;;;;;12.10;61.92;100115.94;5058873;28;45341;-61
2021/12/29 01:03:55;;;;;;;;;5.00;2.00;;;;;12.09;62.00;100123.00;5058811;28;45410;-61
2021/12/29 01:06:20;;;;;;;;;5.75;2.00;;;;;12.09;62.01;100119.56;5058423;28;46239;-61
2021/12/29 01:08:46;;;;;;;;;7.50;4.25;;;;;12.10;61.69;100115.94;5057750;28;68351;-61
2021/12/29 01:11:12;;;;;;;;;8.50;3.50;;;;;12.09;62.44;100111.66;5058733;28;45289;-62
2021/12/29 01:13:45;;;;;;;;;6.25;4.00;;;;;12.10;62.30;100121.22;5058672;28;45254;-62
2021/12/29 01:16:36;;;;;;;;;4.25;3.00;;;;;12.08;62.34;100112.66;5040335;28;47059;-61
2021/12/29 01:18:55;;;;;;;;;9.25;4.75;;;;;12.09;62.07;100117.75;5058284;28;45897;-62
2021/12/29 01:21:21;;;;;;;;;11.00;4.25;;;;;12.08;62.71;100123.19;5057458;28;66493;-60
2021/12/29 01:23:46;;;;;;;;;7.25;3.50;;;;;12.09;62.52;100122.19;5057482;28;69130;-61
2021/12/29 01:26:12;;;;;;;;;5.50;2.25;;;;;12.08;62.69;100128.44;5057045;28;74727;-61
2021/12/29 01:28:37;;;;;;;;;11.75;6.00;;;;;12.07;62.43;100129.44;5058100;28;45208;-62
2021/12/29 01:31:03;;;;;;;;;8.25;4.25;;;;;12.06;62.39;100125.94;5058141;28;45344;-60
2021/12/29 01:33:28;;;;;;;;;8.25;5.25;;;;;12.07;62.57;100126.78;5057259;28;66867;-61
2021/12/29 01:35:53;;;;;;;;;6.00;4.00;;;;;12.06;62.86;100127.78;5057037;28;75555;-62
2021/12/29 01:38:19;;;;;;;;;5.00;4.00;;;;;12.05;63.06;100124.31;5057399;28;63979;-62
2021/12/29 01:40:48;;;;;;;;;10.75;6.25;;;;;12.05;63.08;100120.84;5057326;28;63721;-61
2021/12/29 01:43:14;;;;;;;;;9.25;4.50;;;;;12.05;62.93;100123.50;5058125;28;45564;-60
2021/12/29 01:45:39;;;;;;;;;7.00;4.00;;;;;12.05;63.32;100119.03;5057096;28;71562;-62
2021/12/29 01:48:05;;;;;;;;;6.25;4.50;;;;;12.05;63.12;100118.22;5039795;28;49395;-61
2021/12/29 01:50:31;;;;;;;;;8.75;4.00;;;;;12.03;63.09;100121.00;5039153;28;68274;-60
2021/12/29 01:53:02;;;;;;;;;9.50;3.75;;;;;12.04;62.76;100124.47;5058058;28;45540;-62
2021/12/29 01:55:29;;;;;;;;;6.00;5.00;;;;;12.02;62.86;100124.59;5023870;28;46046;-60
2021/12/29 01:57:54;;;;;;;;;9.75;5.00;;;;;12.00;63.20;100127.41;5057787;28;45835;-62
2021/12/29 02:00:22;;;;;;;;;13.00;4.25;;;;;12.00;62.96;100126.56;5057865;28;45445;-62
2021/12/29 02:02:47;;;;;;;;;3.25;1.25;;;;;11.99;63.02;100141.56;5057796;28;45284;-61
2021/12/29 02:05:13;;;;;;;;;12.75;5.25;;;;;11.99;63.05;100140.69;5057522;28;46473;-61
2021/12/29 02:07:39;;;;;;;;;7.00;3.75;;;;;11.99;63.45;100141.56;5057506;28;45830;-61
2021/12/29 02:10:05;;;;;;;;;6.25;5.50;;;;;12.00;63.71;100147.63;5057741;28;45265;-61
2021/12/29 02:12:30;;;;;;;;;9.50;3.00;;;;;12.00;63.86;100142.38;5057866;28;45178;-61
2021/12/29 02:14:56;;;;;;;;;9.50;6.50;;;;;11.99;63.96;100154.72;5057307;28;50294;-63
2021/12/29 02:17:21;;;;;;;;;9.25;4.00;;;;;11.99;63.92;100151.22;5056783;28;66140;-61
2021/12/29 02:19:47;;;;;;;;;6.25;5.25;;;;;11.99;63.85;100149.47;5057674;28;45284;-61
2021/12/29 02:22:26;;;;;;;;;10.50;5.00;;;;;12.00;64.04;100155.53;5057566;28;45327;-63
2021/12/29 02:25:05;;;;;;;;;10.50;6.75;;;;;11.99;63.60;100148.59;5024410;28;45497;-61
2021/12/29 02:27:30;;;;;;;;;23.00;15.00;;;;;11.99;64.13;100160.00;5057142;28;45425;-61
2021/12/29 02:29:56;;;;;;;;;16.00;12.00;;;;;11.99;63.90;100160.00;5038689;28;66518;-62
2021/12/29 02:32:22;;;;;;;;;16.75;14.00;;;;;11.99;64.23;100157.34;5038518;28;63118;-62
2021/12/29 02:34:47;;;;;;;;;16.00;10.25;;;;;11.99;63.78;100161.75;5056168;28;74911;-61
2021/12/29 02:37:19;;;;;;;;;9.75;7.00;;;;;11.98;64.35;100150.41;5056633;28;61837;-62
2021/12/29 02:39:44;;;;;;;;;14.50;13.00;;;;;11.99;64.01;100151.22;5057304;28;45499;-61
2021/12/29 02:42:10;;;;;;;;;21.25;14.00;;;;;11.98;64.35;100157.47;5056736;28;55912;-62
2021/12/29 02:44:39;;;;;;;;;23.25;17.50;;;;;11.98;64.51;100155.69;5057074;28;45322;-62
2021/12/29 02:47:04;;;;;;;;;20.50;13.25;;;;;11.98;64.55;100153.03;5055600;28;45390;-61
2021/12/29 02:49:30;;;;;;;;;15.25;10.00;;;;;11.99;64.42;100151.22;5056983;28;45366;-62
2021/12/29 02:51:55;;;;;;;;;12.50;9.25;;;;;11.97;63.98;100148.75;5056225;28;68242;-60
2021/12/29 02:54:21;;;;;;;;;16.50;9.75;;;;;11.97;64.53;100146.13;5055794;28;75558;-61
2021/12/29 02:56:48;;;;;;;;;14.75;7.00;;;;;11.98;64.64;100147.78;5056986;28;45470;-61
2021/12/29 02:59:14;;;;;;;;;18.25;7.75;;;;;11.99;64.24;100145.94;5038550;28;45303;-62
2021/12/29 03:01:39;;;;;;;;;12.75;6.50;;;;;11.99;64.45;100152.09;5056981;28;45529;-61
2021/12/29 03:04:05;;;;;;;;;7.50;5.00;;;;;11.98;64.24;100153.03;5055828;28;73825;-62
2021/12/29 03:06:31;;;;;;;;;6.75;5.75;;;;;11.97;64.92;100148.75;5055945;28;45256;-62
2021/12/29 03:08:56;;;;;;;;;14.50;7.75;;;;;11.97;64.92;100151.38;5056622;28;47311;-61
2021/12/29 03:11:22;;;;;;;;;12.75;7.50;;;;;11.98;64.40;100153.03;5056830;28;45342;-61
2021/12/29 03:13:47;;;;;;;;;10.00;7.00;;;;;11.98;64.72;100162.72;5056581;28;45402;-62
2021/12/29 03:16:12;;;;;;;;;11.25;8.00;;;;;11.96;64.94;100160.28;5056570;28;45309;-61
2021/12/29 03:18:38;;;;;;;;;10.75;5.50;;;;;11.97;65.04;100151.38;5038710;28;45325;-61
2021/12/29 03:21:03;;;;;;;;;13.25;11.25;;;;;11.97;64.89;100151.38;5056760;28;45297;-62
2021/12/29 03:23:30;;;;;;;;;12.00;4.75;;;;;11.96;65.26;100147.09;5055772;28;67181;-61
2021/12/29 03:25:56;;;;;;;;;14.00;10.75;;;;;11.96;65.00;100149.72;5056358;28;45339;-61
2021/12/29 03:28:22;;;;;;;;;16.00;13.25;;;;;11.95;65.16;100150.72;5038438;28;45748;-61
2021/12/29 03:30:51;;;;;;;;;16.00;9.75;;;;;11.94;65.33;100149.06;5056514;28;45572;-62
2021/12/29 03:33:16;;;;;;;;;8.00;5.00;;;;;11.92;65.91;100147.59;5038757;28;47229;-61
2021/12/29 03:35:43;;;;;;;;;6.50;6.00;;;;;11.91;65.75;100141.47;5056431;28;45371;-62
2021/12/29 03:38:11;;;;;;;;;10.00;5.75;;;;;11.90;66.17;100141.66;5056478;28;45372;-61
2021/12/29 03:40:36;;;;;;;;;8.25;4.75;;;;;11.87;66.21;100148.03;5056476;28;45300;-62
2021/12/29 03:43:05;;;;;;;;;11.75;8.25;;;;;11.85;66.11;100148.19;5056235;28;46247;-61
2021/12/29 03:45:30;;;;;;;;;11.25;6.00;;;;;11.85;66.34;100152.63;5056229;28;45273;-60
2021/12/29 03:47:56;;;;;;;;;6.50;4.00;;;;;11.83;66.94;100149.31;5056407;28;45245;-61
2021/12/29 03:50:21;;;;;;;;;7.00;5.00;;;;;11.80;67.28;100147.81;5056352;28;45231;-62
2021/12/29 03:52:47;;;;;;;;;9.75;5.50;;;;;11.79;66.88;100147.97;5055290;28;69065;-62
2021/12/29 03:55:12;;;;;;;;;11.75;5.50;;;;;11.78;66.88;100147.16;5056138;28;45326;-63
2021/12/29 03:57:38;;;;;;;;;10.00;4.50;;;;;11.77;67.30;100149.91;5057805;28;45353;-61
2021/12/29 04:00:05;;;;;;;;;10.00;6.50;;;;;11.75;67.56;100149.25;5059800;28;45306;-61
2021/12/29 04:02:30;;;;;;;;;8.50;5.50;;;;;11.72;67.92;100140.69;5041580;28;45433;-61
2021/12/29 04:04:56;;;;;;;;;13.00;6.50;;;;;11.71;67.50;100138.22;5058606;28;72638;-62
2021/12/29 04:07:21;;;;;;;;;8.25;5.00;;;;;11.68;67.97;100141.97;5041742;28;46070;-62
2021/12/29 04:09:46;;;;;;;;;8.75;5.25;;;;;11.68;68.11;100138.50;5058858;28;65969;-64
2021/12/29 04:12:12;;;;;;;;;11.50;5.00;;;;;11.65;68.03;100139.66;5058781;28;68444;-62
2021/12/29 04:14:37;;;;;;;;;12.75;5.75;;;;;11.64;68.43;100126.63;5059498;28;45506;-62
2021/12/29 04:17:09;;;;;;;;;7.75;6.00;;;;;11.64;67.86;100135.38;5058997;28;55922;-61
2021/12/29 04:20:54;;;;;;;;;11.50;4.75;;;;;11.63;68.40;100130.25;5059685;28;45414;-61
2021/12/29 04:22:28;;;;;;;;;6.00;4.25;;;;;11.61;68.33;100133.06;5059145;28;45451;-61
2021/12/29 04:24:53;;;;;;;;;6.00;5.00;;;;;11.60;68.53;100133.19;5059372;28;45988;-62
2021/12/29 04:27:22;;;;;;;;;9.75;3.00;;;;;11.60;68.75;100130.56;5059169;28;46004;-61
2021/12/29 04:29:47;;;;;;;;;5.75;5.00;;;;;11.59;68.65;100137.63;5059366;28;45300;-61
2021/12/29 04:32:12;;;;;;;;;7.75;4.00;;;;;11.58;68.47;100143.88;5058068;28;72701;-61
2021/12/29 04:34:39;;;;;;;;;8.00;5.00;;;;;11.56;68.69;100141.38;5058545;28;45854;-61
2021/12/29 04:37:05;;;;;;;;;5.25;4.25;;;;;11.56;68.41;100140.56;5058262;28;65973;-61
2021/12/29 04:39:30;;;;;;;;;6.75;5.00;;;;;11.54;68.72;100137.25;5058199;28;68701;-61
2021/12/29 04:41:55;;;;;;;;;5.75;3.00;;;;;11.51;69.08;100138.38;5058070;28;68621;-61
2021/12/29 04:44:21;;;;;;;;;8.00;4.75;;;;;11.47;69.23;100131.75;5040094;28;70080;-62
2021/12/29 04:46:47;;;;;;;;;5.75;4.00;;;;;11.47;69.42;100141.47;5058373;28;56563;-61
2021/12/29 04:49:14;;;;;;;;;6.75;4.00;;;;;11.46;69.15;100137.19;5058975;28;45249;-62
2021/12/29 04:51:47;;;;;;;;;4.75;4.00;;;;;11.44;69.10;100137.34;5040566;28;45493;-61
2021/12/29 04:54:12;;;;;;;;;7.00;3.00;;;;;11.42;69.54;100132.22;5059031;28;45854;-62
2021/12/29 04:56:38;;;;;;;;;7.75;3.00;;;;;11.41;69.58;100129.75;5058987;28;45432;-61
2021/12/29 04:59:03;;;;;;;;;5.00;3.25;;;;;11.39;69.40;100126.47;5058893;28;45503;-61
2021/12/29 05:01:29;;;;;;;;;9.75;4.00;;;;;11.38;69.33;100128.25;5057904;28;69349;-61
2021/12/29 05:03:54;;;;;;;;;7.25;6.25;;;;;11.36;69.97;100119.69;5058713;28;45360;-61
2021/12/29 05:08:48;;;;;;;;;6.75;4.00;;;;;11.32;69.60;100118.34;5058002;28;45361;-61
2021/12/29 05:11:13;;;;;;;;;5.00;3.75;;;;;11.32;69.78;100112.25;5057768;28;68462;-61
2021/12/29 05:13:40;;;;;;;;;3.50;2.00;;;;;11.31;69.97;100106.16;5058723;28;45345;-62
2021/12/29 05:16:06;;;;;;;;;13.25;4.00;;;;;11.32;70.10;100110.44;5058759;28;45281;-62
2021/12/29 05:18:32;;;;;;;;;5.50;3.50;;;;;11.31;70.26;100106.16;5057751;28;67249;-62
2021/12/29 05:20:57;;;;;;;;;9.50;8.00;;;;;11.30;69.98;100101.88;5058406;28;45421;-63
2021/12/29 05:23:23;;;;;;;;;9.25;6.50;;;;;11.27;70.27;100095.13;5058422;28;45339;-62
2021/12/29 05:25:49;;;;;;;;;10.25;6.00;;;;;11.24;70.35;100094.59;5040431;28;45365;-61
2021/12/29 05:28:17;;;;;;;;;6.50;4.00;;;;;11.23;70.82;100095.56;5057445;28;45384;-61
2021/12/29 05:30:42;;;;;;;;;13.00;11.00;;;;;11.22;71.05;100100.00;5058151;28;46191;-62
2021/12/29 05:33:08;;;;;;;;;15.25;10.50;;;;;11.20;71.29;100101.13;5057557;28;63519;-62
2021/12/29 05:35:33;;;;;;;;;7.00;6.50;;;;;11.17;71.42;100097.00;5057573;28;62319;-62
2021/12/29 05:37:59;;;;;;;;;9.25;8.00;;;;;11.17;71.62;100088.28;5058351;28;45356;-61
2021/12/29 05:40:24;;;;;;;;;7.00;6.00;;;;;11.16;71.65;100095.34;5057238;28;69856;-62
2021/12/29 05:42:50;;;;;;;;;9.00;7.00;;;;;11.17;71.64;100093.53;5058135;28;45265;-62
2021/12/29 05:45:15;;;;;;;;;7.00;6.00;;;;;11.16;71.42;100086.63;5057453;28;62233;-62
2021/12/29 05:47:41;;;;;;;;;5.00;4.00;;;;;11.16;71.70;100082.19;5058009;28;45160;-62
2021/12/29 05:50:08;;;;;;;;;11.00;5.25;;;;;11.17;71.86;100090.91;5056840;28;74770;-61
2021/12/29 05:52:33;;;;;;;;;6.50;6.00;;;;;11.17;72.06;100085.66;5023607;28;45734;-63
2021/12/29 05:54:59;;;;;;;;;4.25;4.25;;;;;11.17;72.05;100083.84;5057309;28;63461;-61
2021/12/29 05:57:24;;;;;;;;;14.75;11.25;;;;;11.17;72.35;100086.50;5040010;28;45290;-62
2021/12/29 05:59:49;;;;;;;;;6.50;5.00;;;;;11.18;72.22;100089.94;5056946;28;71514;-61
2021/12/29 06:02:15;;;;;;;;;8.75;6.25;;;;;11.18;71.72;100084.66;5038796;28;67342;-61
2021/12/29 06:04:40;;;;;;;;;4.25;4.00;;;;;11.18;72.09;100082.88;5057941;28;45296;-61
2021/12/29 06:07:06;;;;;;;;;6.00;4.00;;;;;11.19;72.11;100076.66;5057049;28;61701;-61
2021/12/29 06:09:31;;;;;;;;;5.25;4.00;;;;;11.20;72.25;100083.56;5056943;28;66520;-62
2021/12/29 06:11:56;;;;;;;;;4.50;4.50;;;;;11.21;72.01;100076.47;5057796;28;45352;-62
2021/12/29 06:14:22;;;;;;;;;4.50;4.50;;;;;11.20;72.13;100067.78;5057116;28;58835;-63
2021/12/29 06:16:47;;;;;;;;;7.50;5.00;;;;;11.19;72.68;100079.28;5039652;28;45488;-61
2021/12/29 06:19:12;;;;;;;;;3.00;3.00;;;;;11.18;72.55;100069.72;5057297;28;54156;-61
2021/12/29 06:21:38;;;;;;;;;8.00;6.50;;;;;11.17;72.93;100072.50;5056199;28;45304;-60
2021/12/29 06:24:04;;;;;;;;;5.00;4.25;;;;;11.13;72.59;100070.16;5057558;28;45308;-62
2021/12/29 06:26:29;;;;;;;;;7.50;6.00;;;;;11.11;72.84;100080.03;5057171;28;45456;-61
2021/12/29 06:28:55;;;;;;;;;10.25;7.25;;;;;11.10;73.21;100082.81;5055929;28;69763;-62
2021/12/29 06:31:20;;;;;;;;;5.75;4.00;;;;;11.09;73.07;100082.00;5057280;28;45376;-60
2021/12/29 06:33:46;;;;;;;;;7.50;5.00;;;;;11.09;73.46;100081.16;5056332;28;63656;-61
2021/12/29 06:36:12;;;;;;;;;6.25;6.00;;;;;11.06;73.77;100087.56;5057289;28;45209;-62
2021/12/29 06:38:37;;;;;;;;;5.75;5.50;;;;;11.04;73.76;100089.50;5057133;28;46589;-62
2021/12/29 06:41:02;;;;;;;;;17.25;12.75;;;;;11.05;73.35;100085.91;5057233;28;45314;-61
2021/12/29 06:43:28;;;;;;;;;11.75;8.50;;;;;11.06;73.80;100089.34;5056361;28;64857;-61
2021/12/29 06:45:53;;;;;;;;;11.00;8.00;;;;;11.05;73.64;100079.78;5056269;28;62498;-63
2021/12/29 06:48:18;;;;;;;;;8.25;7.25;;;;;11.03;74.15;100082.59;5056001;28;69430;-62
2021/12/29 06:50:44;;;;;;;;;9.00;7.00;;;;;11.03;73.69;100089.63;5056471;28;54867;-62
2021/12/29 06:53:10;;;;;;;;;8.75;7.00;;;;;10.99;74.20;100082.03;5056986;28;45324;-60
2021/12/29 06:55:35;;;;;;;;;7.00;6.00;;;;;10.99;74.29;100084.69;5056499;28;45290;-61
2021/12/29 06:58:00;;;;;;;;;7.50;6.75;;;;;10.98;73.73;100082.22;5055837;28;55048;-61
2021/12/29 07:00:26;;;;;;;;;5.25;5.00;;;;;10.98;73.88;100079.59;5056204;28;54851;-61
2021/12/29 07:02:51;;;;;;;;;6.00;5.75;;;;;10.96;74.19;100082.34;5055737;28;61303;-60
2021/12/29 07:05:16;;;;;;;;;6.50;6.00;;;;;10.95;74.26;100079.88;5056396;28;48275;-61
2021/12/29 07:07:42;;;;;;;;;9.00;7.00;;;;;10.95;74.68;100085.13;5055610;28;71711;-61
2021/12/29 07:10:07;;;;;;;;;8.50;6.75;;;;;10.95;74.62;100080.69;5038600;28;45277;-62
2021/12/29 07:12:33;;;;;;;;;4.25;4.25;;;;;10.94;74.46;100076.41;5056776;28;45275;-62
2021/12/29 07:14:58;;;;;;;;;5.50;4.00;;;;;10.95;74.41;100075.44;5056208;28;50739;-62
2021/12/29 07:17:24;;;;;;;;;6.75;6.25;;;;;10.95;74.66;100075.44;5056478;28;45327;-62
2021/12/29 07:19:49;;;;;;;;;9.00;6.00;;;;;10.96;74.50;100084.97;5055039;28;45245;-61
2021/12/29 07:22:14;;;;;;;;;6.25;5.00;;;;;10.95;75.03;100080.69;5053902;28;67257;-60
2021/12/29 07:24:40;;;;;;;;;4.75;4.75;;;;;10.96;75.14;100073.66;5056278;28;45347;-62
2021/12/29 07:27:05;;;;;;;;;10.50;8.50;;;;;10.96;74.75;100077.09;5055099;28;66343;-60
2021/12/29 07:29:31;;;;;;;;;9.75;9.75;;;;;10.96;75.20;100079.72;5055149;28;67649;-61
2021/12/29 07:32:01;;;;;;;;;7.50;7.50;;;;;10.97;74.69;100080.56;5055179;28;45426;-60
2021/12/29 07:34:28;;;;;;;;;8.25;7.75;;;;;10.99;75.01;100082.03;5056357;28;45336;-61
2021/12/29 07:36:53;;;;;;;;;8.50;7.75;;;;;11.01;74.80;100084.53;5056010;28;46442;-61
2021/12/29 07:39:19;;;;;;;;;10.50;7.00;;;;;11.03;74.82;100079.13;5055710;28;52225;-62
2021/12/29 07:41:45;;;;;;;;;6.00;6.00;;;;;11.02;75.21;100077.47;5056212;28;45578;-62
2021/12/29 07:44:12;;;;;;;;;8.50;7.75;;;;;11.02;75.26;100080.94;5056053;28;45154;-62
2021/12/29 07:46:38;;;;;;;;;8.50;7.00;;;;;11.03;75.16;100084.38;5056116;28;45307;-62
2021/12/29 07:49:03;;;;;;;;;11.50;11.00;;;;;11.03;75.05;100093.09;5056012;28;45391;-61
2021/12/29 07:51:29;;;;;;;;;10.50;9.25;;;;;11.05;75.19;100096.41;5056198;28;45269;-61
2021/12/29 07:53:54;;;;;;;;;9.50;7.50;;;;;11.05;75.06;100106.94;5056044;28;45289;-61
2021/12/29 07:56:20;;;;;;;;;8.00;7.00;;;;;11.05;75.13;100101.66;5055874;28;46301;-61
2021/12/29 07:58:45;;;;;;;;;18.25;14.00;;;;;11.07;75.20;100104.13;5055610;28;45681;-62
2021/12/29 08:01:11;;;;;;;;;9.50;8.00;;;;;11.06;74.96;100103.31;5055243;28;62853;-61
2021/12/29 08:03:36;;;;;;;;;9.75;8.25;;;;;11.06;74.85;100103.31;5037884;28;45574;-61
2021/12/29 08:06:01;;;;;;;;;9.25;9.00;;;;;11.07;75.44;100104.13;5037596;28;46605;-61
2021/12/29 08:08:27;;;;;;;;;7.00;6.50;;;;;11.07;75.52;100104.13;5055655;28;45377;-62
2021/12/29 08:10:52;;;;;;;;;9.00;6.50;;;;;11.08;75.46;100117.16;5055768;28;49815;-60
2021/12/29 08:13:18;;;;;;;;;6.00;6.00;;;;;11.10;75.24;100112.56;5038156;28;45428;-61
2021/12/29 08:15:43;;;;;;;;;8.50;7.75;;;;;11.12;75.60;100110.63;5055295;28;58367;-61
2021/12/29 08:18:08;;;;;;;;;7.75;6.50;;;;;11.13;75.18;100112.25;5055760;28;45185;-62
2021/12/29 08:20:35;;;;;;;;;11.50;9.25;;;;;11.13;75.27;100114.88;5055229;28;59473;-61
2021/12/29 08:23:01;;;;;;;;;11.75;11.50;;;;;11.18;75.65;100113.59;5055078;28;45309;-60
2021/12/29 08:25:27;;;;;;;;;11.25;10.50;;;;;11.17;75.61;100106.69;5055487;28;45285;-62
2021/12/29 08:27:52;;;;;;;;;12.75;12.25;;;;;11.18;75.76;100114.44;5054269;28;46347;-62
2021/12/29 08:30:17;;;;;;;;;9.50;9.50;;;;;11.19;75.79;100123.97;5055436;28;51220;-61
2021/12/29 08:32:43;;;;;;;;;9.25;7.50;;;;;11.20;75.43;100123.00;5055573;28;45519;-62
2021/12/29 08:35:09;;;;;;;;;8.50;8.00;;;;;11.20;75.85;100124.78;5055551;28;46048;-62
2021/12/29 08:37:34;;;;;;;;;7.25;7.25;;;;;11.22;75.99;100130.72;5055470;28;45396;-61
2021/12/29 08:40:00;;;;;;;;;7.75;7.75;;;;;11.22;75.99;100125.47;5079822;27;65204;-62
2021/12/29 08:42:26;;;;;;;;;8.25;6.00;;;;;11.24;75.85;100136.66;5059078;27;45578;-61
2021/12/29 08:44:51;;;;;;;;;9.00;9.00;;;;;11.25;75.88;100131.28;5078126;27;46322;-61
2021/12/29 08:47:17;;;;;;;;;8.25;8.00;;;;;11.27;75.81;100129.31;5074178;27;50615;-62
2021/12/29 08:49:42;;;;;;;;;10.50;9.75;;;;;11.30;75.95;100114.22;5080735;27;45430;-61
2021/12/29 08:52:07;;;;;;;;;9.25;7.50;;;;;11.30;76.11;100112.41;5079427;27;46296;-63
2021/12/29 08:54:34;;;;;;;;;9.00;9.00;;;;;11.30;76.14;100106.31;5085093;27;46467;-62
2021/12/29 08:57:00;;;;;;;;;12.50;11.25;;;;;11.32;76.14;100109.63;5086866;27;45728;-62
2021/12/29 08:59:25;;;;;;;;;13.75;11.00;;;;;11.34;75.76;100116.38;5088131;27;45452;-62
2021/12/29 09:01:51;;;;;;;;;13.00;13.00;;;;;11.34;76.27;100113.75;5089979;27;68786;-61
2021/12/29 09:04:16;;;;;;;;;15.00;12.50;;;;;11.37;76.19;100129.22;5090342;27;66546;-60
2021/12/29 09:06:41;;;;;;;;;11.50;11.25;;;;;11.39;76.36;100127.28;5080992;27;62867;-60
2021/12/29 09:09:07;;;;;;;;;12.75;11.50;;;;;11.41;76.09;100122.69;5057404;27;56897;-61
2021/12/29 09:11:32;;;;;;;;;16.00;11.00;;;;;11.42;76.66;100119.06;5089592;27;66782;-62
2021/12/29 09:13:57;;;;;;;;;11.00;9.75;;;;;11.46;76.51;100113.50;5071671;27;46001;-61
2021/12/29 09:16:23;;;;;;;;;10.25;9.75;;;;;11.47;76.18;100115.97;5074939;27;45429;-61
2021/12/29 09:18:48;;;;;;;;;9.50;9.00;;;;;11.50;76.66;100117.50;5063509;27;46142;-60
2021/12/29 09:21:16;;;;;;;;;11.75;9.75;;;;;11.54;76.71;100110.97;5059230;27;45431;-61
2021/12/29 09:23:42;;;;;;;;;12.00;9.25;;;;;11.56;76.22;100109.81;5067942;27;46224;-62
2021/12/29 09:26:09;;;;;;;;;13.00;10.75;;;;;11.57;76.48;100102.75;5068559;27;45435;-62
2021/12/29 09:28:34;;;;;;;;;11.00;11.00;;;;;11.60;76.82;100106.88;5067764;27;45453;-62
2021/12/29 09:31:00;;;;;;;;;16.50;13.00;;;;;11.62;76.82;100112.81;5089711;27;62848;-61
2021/12/29 09:33:25;;;;;;;;;15.25;14.50;;;;;11.64;76.61;100111.69;5082305;27;72625;-61
2021/12/29 09:36:01;;;;;;;;;9.00;9.00;;;;;11.66;76.86;100117.59;5092009;27;67945;-61
2021/12/29 09:38:26;;;;;;;;;11.25;9.50;;;;;11.70;76.88;100118.13;5089602;27;45440;-62
2021/12/29 09:40:52;;;;;;;;;11.75;9.00;;;;;11.73;76.69;100125.72;5066274;27;45476;-62
2021/12/29 09:43:18;;;;;;;;;12.00;8.75;;;;;11.76;76.81;100114.06;5068202;27;46433;-62
2021/12/29 09:45:43;;;;;;;;;13.00;12.00;;;;;11.78;76.92;100107.66;5072119;27;45530;-63
2021/12/29 09:48:09;;;;;;;;;14.00;11.00;;;;;11.81;76.97;100110.00;5055521;27;45367;-62
2021/12/29 09:50:34;;;;;;;;;10.75;9.00;;;;;11.85;76.95;100107.88;5072682;27;69429;-61
2021/12/29 09:53:00;;;;;;;;;8.25;8.25;;;;;11.88;77.02;100111.03;5072188;27;64957;-61
2021/12/29 09:55:25;;;;;;;;;7.00;7.00;;;;;11.92;77.29;100108.09;5073374;27;45446;-62
2021/12/29 09:57:52;;;;;;;;;10.25;8.25;;;;;11.96;76.68;100119.94;5082054;27;45482;-62
2021/12/29 10:00:26;;;;;;;;;5.50;4.75;;;;;11.99;77.32;100117.00;5085202;27;45469;-62
2021/12/29 10:02:52;;;;;;;;;8.25;7.00;;;;;12.02;77.50;100109.66;5060662;27;46340;-61
2021/12/29 10:05:17;;;;;;;;;8.75;7.75;;;;;12.04;76.90;100103.41;5081231;27;45918;-61
2021/12/29 10:07:43;;;;;;;;;11.50;8.25;;;;;12.08;76.97;100108.19;5079004;27;45451;-61
2021/12/29 10:10:16;;;;;;;;;7.00;6.00;;;;;12.11;77.71;100107.06;5084045;27;64608;-62
2021/12/29 10:12:42;;;;;;;;;8.00;8.00;;;;;12.14;77.08;100109.38;5087935;27;47151;-60
2021/12/29 10:15:08;;;;;;;;;9.00;7.00;;;;;12.18;77.49;100113.38;5089064;27;45840;-61
2021/12/29 10:17:33;;;;;;;;;9.50;8.00;;;;;12.21;77.17;100117.47;5088526;27;45457;-61
2021/12/29 10:20:03;;;;;;;;;9.00;9.00;;;;;12.25;77.17;100109.09;5091289;27;62807;-63
2021/12/29 10:22:29;;;;;;;;;10.00;9.50;;;;;12.27;77.48;100111.59;5093667;27;45397;-61
2021/12/29 10:25:24;;;;;;;;;9.50;9.50;;;;;12.31;77.25;100112.94;5094068;27;73184;-60
2021/12/29 10:27:49;;;;;;;;;14.00;14.00;;;;;12.34;77.47;100109.97;5077694;27;45493;-61
2021/12/29 10:30:23;;;;;;;;;12.25;9.00;;;;;12.36;77.50;100109.81;5071798;27;45641;-61
2021/12/29 10:32:49;;;;;;;;;13.50;11.00;;;;;12.40;77.56;100106.72;5055147;27;45318;-60
2021/12/29 10:35:29;;;;;;;;;11.25;11.00;;;;;12.43;77.39;100111.66;5061607;27;45466;-60
2021/12/29 10:38:07;;;;;;;;;11.00;10.50;;;;;12.47;77.16;100115.59;5069826;27;45336;-62
2021/12/29 10:40:34;;;;;;;;;11.00;9.75;;;;;12.50;77.63;100121.53;5079564;27;45371;-60
2021/12/29 10:43:00;;;;;;;;;14.25;12.00;;;;;12.53;77.48;100116.78;5081832;27;46182;-61
2021/12/29 10:45:35;;;;;;;;;15.75;12.00;;;;;12.58;77.55;100118.94;5084980;27;49066;-62
2021/12/29 10:48:01;;;;;;;;;10.25;9.25;;;;;12.61;77.41;100113.34;5057151;27;45558;-61
2021/12/29 10:50:27;;;;;;;;;13.25;11.50;;;;;12.64;77.64;100128.03;5077596;27;45419;-61
2021/12/29 10:52:54;;;;;;;;;10.50;9.25;;;;;12.68;77.55;100127.56;5090553;27;46072;-62
2021/12/29 10:55:31;;;;;;;;;11.00;10.00;;;;;12.70;77.54;100130.84;5093126;27;45478;-61
2021/12/29 10:58:07;;;;;;;;;12.00;11.25;;;;;12.74;77.47;100136.63;5087663;27;45458;-62
2021/12/29 11:00:36;;;;;;;;;9.75;9.00;;;;;12.77;77.52;100120.47;5073520;27;45628;-61
2021/12/29 11:03:21;;;;;;;;;14.00;13.75;;;;;12.81;77.83;100128.91;5079518;27;45485;-61
2021/12/29 11:05:50;;;;;;;;;12.00;11.00;;;;;12.85;77.55;100146.06;5064067;27;45395;-61
2021/12/29 11:08:16;;;;;;;;;11.50;9.50;;;;;12.87;77.50;100139.63;5065878;27;45319;-61
2021/12/29 11:10:43;;;;;;;;;10.50;9.75;;;;;12.91;77.66;100140.97;5073056;27;45367;-63
2021/12/29 11:13:09;;;;;;;;;11.50;11.50;;;;;12.93;77.94;100138.19;5060550;27;45478;-61
2021/12/29 11:15:41;;;;;;;;;11.25;10.25;;;;;12.96;78.04;100142.28;5080597;27;45991;-62
2021/12/29 11:18:08;;;;;;;;;12.75;12.00;;;;;13.00;77.92;100138.34;5051683;27;45301;-62
2021/12/29 11:20:34;;;;;;;;;11.50;10.00;;;;;13.02;77.73;100136.38;5081361;27;45581;-61